Time;durP1;ratioP1;P1;durP2;ratioP2;P2;SDS_P1;SDS_P2;PMS_P1;PMS_P2;Temp;Humidity;BMP_temperature;BMP_pressure;BME280_temperature;BME280_humidity;BME280_pressure;Samples;Min_cycle;Max_cycle;Signal;HPM_P1;HPM_P2
2023/10/21 00:00:15;;;;;;;7.10;3.13;;;20.00;95.20;;;;;;10493065;28;20141;-39
2023/10/21 00:05:19;;;;;;;2.80;1.70;;;20.10;94.30;;;;;;10494604;28;20123;-33
2023/10/21 00:10:20;;;;;;;6.13;1.88;;;20.40;94.00;;;;;;10494863;28;20185;-40
2023/10/21 00:15:23;;;;;;;3.47;2.00;;;20.30;94.10;;;;;;10489130;28;20503;-32
2023/10/21 00:20:26;;;;;;;7.03;1.95;;;20.40;93.50;;;;;;10491170;28;20551;-39
2023/10/21 00:25:28;;;;;;;3.72;1.63;;;20.50;93.20;;;;;;10492591;28;20063;-36
2023/10/21 00:30:31;;;;;;;5.35;1.77;;;20.50;93.20;;;;;;10495200;28;20131;-32
2023/10/21 00:35:33;;;;;;;;;;;20.30;93.70;;;;;;10498299;28;20048;-32
2023/10/21 00:40:35;;;;;;;4.15;1.77;;;20.40;93.00;;;;;;10485283;28;20401;-38
2023/10/21 00:45:37;;;;;;;13.75;2.30;;;20.10;94.30;;;;;;10488519;28;20092;-35
2023/10/21 00:50:41;;;;;;;4.70;2.00;;;20.40;93.40;;;;;;10491642;28;20609;-35
2023/10/21 00:55:43;;;;;;;3.25;1.63;;;20.40;93.20;;;;;;10495757;28;20132;-34
2023/10/21 01:00:45;;;;;;;7.15;2.35;;;20.40;93.20;;;;;;10495288;28;20507;-37
2023/10/21 01:05:48;;;;;;;2.67;1.35;;;20.40;93.10;;;;;;10494061;28;20054;-33
2023/10/21 01:10:50;;;;;;;3.30;1.63;;;20.20;93.80;;;;;;10500718;28;20190;-39
2023/10/21 01:15:52;;;;;;;4.75;1.83;;;20.30;93.50;;;;;;10485616;28;20122;-41
2023/10/21 01:20:55;;;;;;;3.63;1.75;;;19.90;94.70;;;;;;10503889;28;20101;-33
2023/10/21 01:25:58;;;;;;;5.55;1.42;;;20.30;93.60;;;;;;10494202;28;20133;-40
2023/10/21 01:31:00;;;;;;;4.88;1.77;;;20.30;93.00;;;;;;10497187;28;24347;-35
2023/10/21 01:36:02;;;;;;;2.78;1.40;;;20.40;92.70;;;;;;10501899;28;20133;-31
2023/10/21 01:41:08;;;;;;;5.57;1.58;;;20.40;92.70;;;;;;10492923;28;20553;-41
2023/10/21 01:46:10;;;;;;;3.97;1.42;;;20.30;93.20;;;;;;10495025;28;20199;-31
2023/10/21 01:51:13;;;;;;;4.25;1.98;;;20.30;93.00;;;;;;10498626;28;20040;-33
2023/10/21 01:56:16;;;;;;;4.43;1.83;;;20.30;92.90;;;;;;10507267;28;20036;-31
2023/10/21 02:01:18;;;;;;;3.20;1.65;;;19.70;94.70;;;;;;10501058;28;20083;-34
2023/10/21 02:06:19;;;;;;;1.80;1.25;;;20.10;93.90;;;;;;10504942;28;20489;-33
2023/10/21 02:11:24;;;;;;;3.83;1.55;;;20.30;93.10;;;;;;10504037;28;20135;-33
2023/10/21 02:16:25;;;;;;;4.53;1.80;;;20.10;93.30;;;;;;10499626;28;20725;-35
2023/10/21 02:21:27;;;;;;;1.85;1.45;;;20.30;92.70;;;;;;10498771;28;20074;-37
2023/10/21 02:26:31;;;;;;;4.53;1.60;;;20.00;93.80;;;;;;10502823;28;20071;-39
2023/10/21 02:31:33;;;;;;;2.13;1.45;;;20.30;92.90;;;;;;10499204;28;20124;-37
2023/10/21 02:36:35;;;;;;;;;;;20.20;93.30;;;;;;10497695;28;20117;-37
2023/10/21 02:41:38;;;;;;;3.22;1.75;;;20.30;92.70;;;;;;10503454;28;19928;-38
2023/10/21 02:46:40;;;;;;;2.90;1.40;;;20.10;93.30;;;;;;10494388;28;20083;-33
2023/10/21 02:51:42;;;;;;;3.38;1.25;;;20.20;92.90;;;;;;10502444;28;20076;-39
2023/10/21 02:56:45;;;;;;;2.63;1.30;;;20.20;92.80;;;;;;10505457;28;20044;-36
2023/10/21 03:15:27;;;;;;;3.47;1.58;;;20.10;93.30;;;;;;10456394;27;1950182;-41
2023/10/21 03:20:32;;;;;;;3.72;1.65;;;20.10;93.10;;;;;;10508155;28;20114;-41
2023/10/21 03:25:34;;;;;;;4.28;1.35;;;19.60;95.10;;;;;;10505163;28;20193;-32
2023/10/21 03:30:37;;;;;;;2.38;1.40;;;19.80;94.10;;;;;;10502218;28;20139;-39
2023/10/21 03:35:39;;;;;;;2.80;1.35;;;19.50;94.70;;;;;;10497474;28;20080;-36
2023/10/21 03:40:41;;;;;;;3.92;1.90;;;20.10;93.10;;;;;;10506877;28;20181;-37
2023/10/21 03:45:44;;;;;;;12.43;2.70;;;20.10;93.10;;;;;;10495035;28;20048;-33
2023/10/21 03:50:46;;;;;;;2.08;1.45;;;19.90;93.40;;;;;;10499008;28;20036;-35
2023/10/21 03:55:47;;;;;;;2.75;1.30;;;19.90;93.00;;;;;;10493031;28;20448;-40
2023/10/21 04:00:51;;;;;;;3.35;1.45;;;20.10;92.90;;;;;;10504344;28;20044;-35
2023/10/21 04:05:53;;;;;;;3.80;1.52;;;20.10;92.90;;;;;;10498047;28;20048;-32
2023/10/21 04:10:55;;;;;;;6.70;2.28;;;20.00;93.10;;;;;;10494833;28;20068;-37
2023/10/21 04:15:59;;;;;;;4.03;1.88;;;19.80;93.30;;;;;;10495891;28;20512;-34
2023/10/21 04:21:01;;;;;;;3.10;1.40;;;19.90;93.50;;;;;;10508976;28;20045;-46
2023/10/21 04:26:04;;;;;;;9.63;2.17;;;19.90;93.40;;;;;;10468423;28;20586;-37
2023/10/21 04:31:07;;;;;;;3.30;1.80;;;19.40;95.00;;;;;;10476324;28;20167;-40
2023/10/21 04:36:09;;;;;;;2.10;1.33;;;19.60;94.40;;;;;;10474051;28;20122;-34
2023/10/21 04:41:11;;;;;;;4.28;1.42;;;19.60;94.30;;;;;;10474163;28;20048;-32
2023/10/21 04:46:15;;;;;;;7.35;2.30;;;19.70;93.90;;;;;;10472294;28;20062;-33
2023/10/21 04:51:16;;;;;;;4.88;2.05;;;19.40;95.00;;;;;;10466077;28;20110;-40
2023/10/21 04:56:18;;;;;;;6.20;2.95;;;18.60;98.10;;;;;;10470018;28;20072;-42
2023/10/21 05:01:21;;;;;;;4.53;1.67;;;18.40;98.30;;;;;;10468492;28;20044;-35
2023/10/21 05:06:23;;;;;;;9.40;3.80;;;19.20;96.20;;;;;;10470978;28;20045;-33
2023/10/21 05:11:25;;;;;;;3.08;1.80;;;18.60;97.90;;;;;;10467439;28;20071;-31
2023/10/21 05:16:28;;;;;;;7.22;2.25;;;19.50;95.10;;;;;;10464093;28;20143;-33
2023/10/21 05:21:30;;;;;;;3.78;2.10;;;19.30;95.50;;;;;;10467785;28;20086;-31
2023/10/21 05:26:31;;;;;;;3.78;1.90;;;19.70;94.30;;;;;;10458913;28;20068;-33
2023/10/21 05:31:34;;;;;;;5.53;2.00;;;19.90;93.80;;;;;;10471719;28;20041;-45
2023/10/21 05:36:36;;;;;;;2.17;1.15;;;19.90;93.40;;;;;;10460668;28;20062;-39
2023/10/21 05:41:38;;;;;;;3.70;1.40;;;19.90;93.90;;;;;;10463857;28;20046;-32
2023/10/21 05:46:41;;;;;;;2.42;1.15;;;20.30;92.60;;;;;;10468676;28;20064;-32
2023/10/21 05:51:43;;;;;;;3.40;1.95;;;20.30;92.20;;;;;;10480409;28;20076;-37
2023/10/21 05:56:45;;;;;;;3.03;1.13;;;20.20;92.80;;;;;;10467461;28;20083;-33
2023/10/21 06:01:48;;;;;;;3.67;1.90;;;20.20;92.50;;;;;;10462946;28;20072;-36
2023/10/21 06:06:54;;;;;;;1.75;1.02;;;20.00;93.10;;;;;;10471156;28;20131;-41
2023/10/21 06:11:55;;;;;;;3.35;0.98;;;20.20;93.30;;;;;;10472064;28;20191;-33
2023/10/21 06:16:59;;;;;;;1.63;1.25;;;20.40;92.40;;;;;;10469572;28;20051;-33
2023/10/21 06:22:03;;;;;;;2.03;1.20;;;20.30;92.70;;;;;;10468264;28;20051;-34
2023/10/21 06:27:07;;;;;;;6.55;1.95;;;19.80;94.10;;;;;;10465087;28;20041;-32
2023/10/21 06:32:10;;;;;;;2.97;1.30;;;20.20;93.10;;;;;;10462130;28;20397;-35
2023/10/21 06:37:12;;;;;;;2.05;1.10;;;20.30;93.00;;;;;;10466349;28;20135;-40
2023/10/21 06:42:14;;;;;;;2.65;1.02;;;20.40;93.00;;;;;;10473026;28;20036;-39
2023/10/21 06:47:17;;;;;;;3.45;1.70;;;20.20;93.60;;;;;;10466687;28;20037;-34
2023/10/21 06:52:20;;;;;;;2.83;1.58;;;20.00;94.40;;;;;;10460333;28;20051;-38
2023/10/21 06:57:21;;;;;;;3.47;1.10;;;20.00;94.20;;;;;;10462272;28;20045;-41
2023/10/21 07:02:25;;;;;;;5.97;1.27;;;20.10;94.20;;;;;;10468201;28;20047;-40
2023/10/21 07:07:26;;;;;;;5.00;1.45;;;20.10;94.10;;;;;;10467051;28;20426;-35
2023/10/21 07:12:28;;;;;;;2.92;1.20;;;19.80;94.50;;;;;;10465311;28;20142;-33
2023/10/21 07:17:32;;;;;;;3.30;1.30;;;18.90;97.40;;;;;;10462815;28;20158;-37
2023/10/21 07:22:35;;;;;;;5.97;1.20;;;18.90;99.10;;;;;;10463463;28;20490;-35
2023/10/21 07:27:37;;;;;;;3.35;1.02;;;19.60;96.80;;;;;;10463110;28;20485;-36
2023/10/21 07:32:41;;;;;;;2.72;0.90;;;18.70;99.90;;;;;;10462972;28;20040;-36
2023/10/21 07:37:44;;;;;;;4.15;0.82;;;18.70;99.10;;;;;;10456971;28;20052;-42
2023/10/21 07:42:46;;;;;;;3.17;0.90;;;19.10;98.70;;;;;;10472391;28;20040;-35
2023/10/21 07:47:49;;;;;;;1.05;0.82;;;18.50;99.90;;;;;;10468612;28;20064;-38
2023/10/21 07:52:51;;;;;;;3.15;1.00;;;17.20;99.90;;;;;;10461850;28;20471;-33
2023/10/21 07:57:54;;;;;;;4.10;0.90;;;18.10;99.90;;;;;;10467054;28;20037;-33
2023/10/21 08:02:58;;;;;;;1.60;0.65;;;16.60;99.90;;;;;;10468938;28;20041;-31
2023/10/21 08:08:00;;;;;;;3.20;0.80;;;17.20;99.90;;;;;;10462287;28;20132;-33
2023/10/21 08:13:02;;;;;;;2.13;1.07;;;17.60;99.90;;;;;;10473328;28;20421;-31
2023/10/21 08:18:05;;;;;;;2.43;0.80;;;17.90;99.90;;;;;;10473531;28;20437;-30
2023/10/21 08:23:07;;;;;;;3.90;0.80;;;19.50;98.40;;;;;;10461647;28;20040;-31
2023/10/21 08:28:10;;;;;;;2.60;0.70;;;19.20;99.40;;;;;;10467250;28;20036;-41
2023/10/21 08:33:13;;;;;;;6.32;0.73;;;18.40;99.90;;;;;;10469053;28;20114;-39
2023/10/21 08:38:15;;;;;;;2.05;0.63;;;18.80;99.90;;;;;;10467423;28;20091;-39
2023/10/21 08:43:18;;;;;;;3.33;0.80;;;17.50;99.90;;;;;;10464804;28;20099;-36
2023/10/21 08:48:21;;;;;;;2.88;0.82;;;16.40;99.90;;;;;;10473475;28;20059;-38
2023/10/21 08:53:25;;;;;;;4.85;0.98;;;17.60;99.90;;;;;;10470967;28;20124;-32
2023/10/21 08:58:29;;;;;;;3.22;0.85;;;16.70;99.90;;;;;;10468209;28;20045;-36
2023/10/21 09:03:32;;;;;;;3.10;0.70;;;17.40;99.90;;;;;;10478164;28;20041;-31
2023/10/21 09:08:35;;;;;;;4.80;0.60;;;17.80;99.90;;;;;;10476824;28;20045;-33
2023/10/21 09:13:36;;;;;;;;;;;18.00;99.70;;;;;;10467295;28;20060;-32
2023/10/21 09:18:40;;;;;;;4.80;1.08;;;18.70;99.70;;;;;;10472000;28;19955;-36
2023/10/21 09:23:51;;;;;;;3.95;0.55;;;18.40;99.90;;;;;;10467072;28;20195;-35
2023/10/21 09:29:05;;;;;;;4.22;0.68;;;19.00;98.20;;;;;;10468058;28;20076;-35
2023/10/21 09:34:09;;;;;;;3.42;0.90;;;18.30;99.90;;;;;;10466016;28;20044;-32
2023/10/21 09:39:11;;;;;;;1.42;0.80;;;18.40;99.90;;;;;;10467898;28;20041;-47
2023/10/21 09:44:13;;;;;;;6.50;0.73;;;18.20;95.60;;;;;;10473530;28;20040;-43
2023/10/21 09:49:17;;;;;;;;;;;19.00;98.70;;;;;;10466911;28;20471;-31
2023/10/21 09:54:22;;;;;;;3.33;0.80;;;19.00;95.20;;;;;;10467343;28;19928;-34
2023/10/21 09:59:25;;;;;;;1.38;0.50;;;18.70;98.30;;;;;;10468883;28;20040;-31
2023/10/21 10:04:28;;;;;;;5.47;0.70;;;19.70;95.90;;;;;;10459353;28;20568;-32
2023/10/21 10:09:30;;;;;;;5.25;0.90;;;19.10;96.70;;;;;;10471159;28;20044;-34
2023/10/21 10:14:33;;;;;;;1.40;0.55;;;20.00;94.60;;;;;;10463729;28;20103;-39
2023/10/21 10:19:42;;;;;;;6.10;1.25;;;20.00;95.10;;;;;;10464315;28;20060;-37
2023/10/21 10:24:51;;;;;;;4.43;0.85;;;19.40;94.50;;;;;;10461235;28;20489;-41
2023/10/21 10:29:53;;;;;;;2.30;0.68;;;19.60;90.60;;;;;;10475287;28;20049;-34
2023/10/21 10:34:57;;;;;;;6.78;1.95;;;19.50;95.50;;;;;;10464062;28;20122;-36
2023/10/21 10:40:05;;;;;;;2.55;0.93;;;20.00;91.60;;;;;;10465079;28;20040;-47
2023/10/21 10:45:07;;;;;;;5.18;0.70;;;19.80;92.60;;;;;;10458303;28;20191;-38
2023/10/21 10:50:19;;;;;;;3.17;0.63;;;20.20;94.60;;;;;;10466220;28;20490;-36
2023/10/21 10:55:21;;;;;;;2.67;1.30;;;20.10;93.80;;;;;;10463038;28;20055;-33
2023/10/21 11:00:23;;;;;;;3.38;0.93;;;20.30;93.20;;;;;;10463975;28;20627;-35
2023/10/21 11:05:28;;;;;;;6.45;0.75;;;20.70;91.50;;;;;;10466876;28;20143;-34
2023/10/21 11:10:30;;;;;;;3.05;0.77;;;21.00;82.60;;;;;;10469444;28;20039;-43
2023/10/21 11:15:32;;;;;;;4.55;0.82;;;21.00;90.20;;;;;;10463413;28;20153;-31
2023/10/21 11:20:36;;;;;;;4.45;0.95;;;20.90;86.30;;;;;;10457455;28;20146;-32
2023/10/21 11:25:38;;;;;;;2.00;0.90;;;20.60;86.90;;;;;;10460446;28;20989;-36
2023/10/21 11:30:40;;;;;;;5.60;1.63;;;21.10;90.60;;;;;;10461324;28;20488;-35
2023/10/21 11:35:46;;;;;;;3.70;1.17;;;20.90;91.40;;;;;;10468516;28;20052;-34
2023/10/21 11:40:48;;;;;;;4.25;1.55;;;20.90;90.90;;;;;;10474036;28;20386;-37
2023/10/21 11:45:55;;;;;;;2.78;1.83;;;21.00;90.50;;;;;;10468101;28;20052;-31
2023/10/21 11:50:58;;;;;;;3.28;1.13;;;21.10;90.00;;;;;;10464781;28;20083;-35
2023/10/21 12:12:37;;;;;;;6.57;1.40;;;20.50;91.00;;;;;;10463852;28;20045;-35
2023/10/21 12:39:22;;;;;;;6.35;1.70;;;20.40;89.70;;;;;;10462943;28;20366;-31
2023/10/21 12:44:26;;;;;;;4.72;1.13;;;18.20;96.00;;;;;;10473474;28;20051;-31
2023/10/21 12:49:28;;;;;;;7.10;1.30;;;19.50;95.20;;;;;;10465123;28;20033;-40
2023/10/21 12:54:31;;;;;;;5.55;0.80;;;19.70;93.40;;;;;;10461870;28;20039;-31
2023/10/21 12:59:33;;;;;;;3.50;0.98;;;18.10;99.90;;;;;;10471634;28;20037;-42
2023/10/21 13:04:40;;;;;;;5.30;1.17;;;16.80;99.90;;;;;;10470429;28;20086;-35
2023/10/21 13:09:43;;;;;;;2.97;1.25;;;18.00;99.90;;;;;;10463062;28;20045;-39
2023/10/21 13:14:46;;;;;;;7.32;1.35;;;19.70;98.70;;;;;;10472745;28;20440;-37
2023/10/21 13:19:48;;;;;;;2.90;0.82;;;20.10;95.40;;;;;;10469983;28;20063;-41
2023/10/21 13:24:52;;;;;;;4.25;1.25;;;19.70;97.30;;;;;;10465037;28;20397;-34
2023/10/21 13:29:53;;;;;;;5.43;1.50;;;20.40;94.90;;;;;;10474738;28;20052;-33
2023/10/21 13:34:56;;;;;;;7.00;1.40;;;20.50;94.60;;;;;;10466594;28;20048;-33
2023/10/21 13:39:59;;;;;;;3.20;1.35;;;20.50;93.70;;;;;;10474531;28;20118;-36
2023/10/21 13:45:05;;;;;;;5.40;1.50;;;20.80;93.40;;;;;;10472824;28;20032;-34
2023/10/21 13:50:13;;;;;;;4.10;1.58;;;20.70;93.30;;;;;;10474591;28;20477;-31
2023/10/21 13:55:17;;;;;;;5.22;1.52;;;21.00;92.80;;;;;;10467107;28;20073;-35
2023/10/21 14:00:34;;;;;;;10.70;1.80;;;21.00;92.30;;;;;;10464524;28;20067;-30
2023/10/21 14:05:38;;;;;;;6.15;1.35;;;20.70;93.70;;;;;;10469001;28;20044;-37
2023/10/21 14:10:43;;;;;;;7.15;1.50;;;20.70;93.30;;;;;;10467936;28;20202;-33
2023/10/21 14:15:48;;;;;;;3.70;1.50;;;20.80;93.70;;;;;;10461981;28;20052;-31
2023/10/21 14:20:50;;;;;;;7.10;2.33;;;20.70;94.00;;;;;;10473863;28;20109;-39
2023/10/21 14:25:55;;;;;;;5.22;1.92;;;20.90;93.20;;;;;;10469873;28;20361;-31
2023/10/21 14:30:58;;;;;;;7.03;1.75;;;20.80;93.50;;;;;;10466565;28;20135;-34
2023/10/21 14:36:05;;;;;;;4.05;1.33;;;20.70;93.30;;;;;;10459526;28;20052;-36
2023/10/21 14:41:09;;;;;;;6.35;1.55;;;20.80;93.00;;;;;;10455978;28;20049;-41
2023/10/21 14:46:11;;;;;;;5.80;1.92;;;20.90;92.70;;;;;;10467215;28;20556;-40
2023/10/21 14:51:13;;;;;;;4.70;2.30;;;20.80;92.70;;;;;;10471742;28;20066;-33
2023/10/21 14:56:17;;;;;;;4.32;1.63;;;20.70;92.60;;;;;;10462553;28;20053;-31
2023/10/21 15:01:19;;;;;;;6.28;1.85;;;20.80;92.40;;;;;;10464651;28;20044;-32
2023/10/21 15:06:22;;;;;;;6.13;1.77;;;20.70;92.10;;;;;;10467539;28;20493;-32
2023/10/21 15:11:26;;;;;;;5.65;1.88;;;20.40;93.30;;;;;;10459387;28;20124;-29
2023/10/21 15:16:28;;;;;;;6.05;2.30;;;20.50;92.80;;;;;;10462487;28;20189;-32
2023/10/21 15:21:30;;;;;;;7.35;2.35;;;20.60;91.60;;;;;;10469089;28;20474;-31
2023/10/21 15:26:34;;;;;;;5.70;2.00;;;20.70;92.60;;;;;;10450248;28;20062;-36
2023/10/21 15:31:36;;;;;;;7.65;2.75;;;20.50;92.90;;;;;;10459976;28;20044;-39
2023/10/21 15:36:38;;;;;;;6.80;2.25;;;20.70;92.50;;;;;;10462167;28;20155;-40
2023/10/21 15:41:41;;;;;;;6.32;2.55;;;20.70;92.60;;;;;;10450706;28;20052;-37
2023/10/21 15:46:43;;;;;;;4.72;1.88;;;20.50;93.20;;;;;;10459598;28;20234;-34
2023/10/21 15:51:45;;;;;;;7.00;2.25;;;20.60;93.20;;;;;;10453596;28;20036;-37
2023/10/21 15:56:48;;;;;;;4.95;2.30;;;20.60;92.70;;;;;;10461390;28;20681;-36
2023/10/21 16:01:50;;;;;;;8.55;1.75;;;20.10;94.30;;;;;;10458978;28;20120;-36
2023/10/21 16:06:53;;;;;;;4.10;2.08;;;19.80;92.90;;;;;;10460873;28;20036;-33
2023/10/21 16:11:57;;;;;;;3.50;1.83;;;20.50;93.70;;;;;;10462364;28;20052;-37
2023/10/21 16:17:01;;;;;;;6.70;2.58;;;20.40;92.20;;;;;;10455107;28;20087;-31
2023/10/21 16:22:03;;;;;;;3.70;1.50;;;20.30;93.00;;;;;;10465289;28;20057;-34
2023/10/21 16:27:06;;;;;;;4.03;1.95;;;19.70;94.50;;;;;;10463802;28;20044;-32
2023/10/21 16:32:08;;;;;;;5.82;2.10;;;20.20;94.90;;;;;;10469939;28;20051;-31
2023/10/21 16:37:09;;;;;;;3.90;2.00;;;20.60;93.50;;;;;;10470367;28;20488;-38
2023/10/21 16:42:13;;;;;;;5.75;2.22;;;20.80;92.60;;;;;;10470935;28;20044;-33
2023/10/21 16:47:14;;;;;;;8.23;1.90;;;20.80;92.90;;;;;;10465936;28;20048;-37
2023/10/21 16:52:16;;;;;;;5.05;1.88;;;20.70;93.10;;;;;;10466395;28;20143;-38
2023/10/21 16:57:20;;;;;;;6.38;2.45;;;20.90;92.50;;;;;;10480225;28;20180;-38
2023/10/21 17:02:22;;;;;;;5.05;2.47;;;21.00;92.60;;;;;;10461174;28;20045;-32
2023/10/21 17:07:25;;;;;;;6.70;2.42;;;20.50;93.50;;;;;;10473755;28;20036;-31
2023/10/21 17:12:28;;;;;;;9.18;3.40;;;20.40;93.80;;;;;;10465951;28;20053;-37
2023/10/21 17:17:30;;;;;;;7.10;3.22;;;19.70;95.40;;;;;;10465175;28;20060;-29
2023/10/21 17:22:31;;;;;;;6.30;3.67;;;19.50;95.10;;;;;;10470176;28;20052;-33
2023/10/21 17:27:34;;;;;;;11.95;4.50;;;19.50;95.40;;;;;;10463733;28;20032;-34
2023/10/21 17:32:36;;;;;;;12.00;4.03;;;19.70;95.50;;;;;;10474133;28;20459;-36
2023/10/21 17:37:38;;;;;;;14.73;2.75;;;19.20;96.70;;;;;;10470111;28;20131;-37
2023/10/21 17:42:41;;;;;;;10.57;4.35;;;18.90;96.40;;;;;;10459526;28;20060;-32
2023/10/21 17:47:43;;;;;;;11.82;4.70;;;19.50;96.00;;;;;;10466622;28;20123;-34
2023/10/21 17:52:45;;;;;;;11.57;4.78;;;19.70;95.00;;;;;;10461820;28;20053;-39
2023/10/21 17:57:48;;;;;;;11.93;5.25;;;19.20;96.20;;;;;;10466247;28;20052;-37
2023/10/21 18:02:52;;;;;;;9.88;4.93;;;19.30;96.30;;;;;;10462492;28;20524;-42
2023/10/21 18:07:53;;;;;;;8.85;3.70;;;19.20;95.70;;;;;;10464460;28;20044;-35
2023/10/21 18:12:57;;;;;;;10.77;4.15;;;20.40;93.30;;;;;;10463684;28;20071;-31
2023/10/21 18:17:59;;;;;;;6.90;3.78;;;20.50;92.60;;;;;;10451064;28;20052;-33
2023/10/21 18:23:01;;;;;;;8.65;3.42;;;20.60;92.30;;;;;;10455880;28;20037;-40
2023/10/21 18:28:04;;;;;;;14.00;4.55;;;20.50;92.40;;;;;;10457353;28;20153;-31
2023/10/21 18:33:06;;;;;;;4.70;2.60;;;20.40;92.70;;;;;;10452426;28;20056;-33
2023/10/21 18:38:08;;;;;;;6.97;3.25;;;20.50;92.80;;;;;;10452028;28;20151;-35
2023/10/21 18:43:11;;;;;;;7.07;4.13;;;20.50;92.70;;;;;;10458393;28;20040;-31
2023/10/21 18:48:13;;;;;;;6.80;2.85;;;20.50;92.90;;;;;;10452879;28;20707;-44
2023/10/21 18:53:15;;;;;;;;;;;20.50;93.00;;;;;;10465090;28;20051;-33
2023/10/21 18:58:19;;;;;;;5.35;2.22;;;20.60;92.00;;;;;;10459391;28;19920;-30
2023/10/21 19:03:21;;;;;;;4.40;2.17;;;20.80;92.40;;;;;;10452733;28;20478;-39
2023/10/21 19:08:23;;;;;;;6.50;1.80;;;21.00;91.70;;;;;;10458867;28;20045;-35
2023/10/21 19:13:27;;;;;;;5.28;2.25;;;21.00;90.70;;;;;;10452444;28;20067;-39
2023/10/21 19:18:29;;;;;;;6.10;2.67;;;21.00;91.30;;;;;;10462779;28;20049;-40
2023/10/21 19:23:30;;;;;;;8.77;3.78;;;20.80;91.70;;;;;;10453464;28;20053;-38
2023/10/21 19:28:34;;;;;;;7.30;2.78;;;20.60;91.80;;;;;;10461023;28;20036;-32
2023/10/21 19:33:35;;;;;;;8.15;2.13;;;20.50;91.10;;;;;;10458179;28;20053;-36
2023/10/21 19:38:38;;;;;;;7.10;2.88;;;20.10;92.00;;;;;;10457835;28;20280;-37
2023/10/21 19:43:42;;;;;;;7.38;3.17;;;20.50;92.60;;;;;;10456669;28;20438;-30
2023/10/21 19:48:43;;;;;;;7.57;2.47;;;20.60;92.30;;;;;;10458061;28;20053;-33
2023/10/21 19:53:45;;;;;;;12.13;2.55;;;20.80;91.70;;;;;;10454251;28;20814;-39
2023/10/21 19:58:48;;;;;;;9.20;2.70;;;20.60;92.50;;;;;;10462298;28;20070;-33
2023/10/21 20:03:52;;;;;;;5.05;2.03;;;20.50;91.90;;;;;;10465996;28;20398;-36
2023/10/21 20:08:53;;;;;;;8.07;2.42;;;20.30;92.90;;;;;;10468488;28;20140;-34
2023/10/21 20:13:56;;;;;;;6.32;2.15;;;20.60;91.80;;;;;;10464470;28;20052;-31
2023/10/21 20:18:58;;;;;;;7.15;2.15;;;20.10;93.20;;;;;;10467957;28;20131;-31
2023/10/21 20:24:00;;;;;;;7.93;2.53;;;20.40;92.60;;;;;;10466378;28;20271;-35
2023/10/21 20:29:03;;;;;;;4.63;2.20;;;20.20;91.80;;;;;;10459704;28;20035;-36
2023/10/21 20:34:05;;;;;;;6.13;2.28;;;20.50;92.10;;;;;;10466396;28;20068;-41
2023/10/21 20:39:08;;;;;;;4.15;1.70;;;20.10;92.60;;;;;;10463827;28;20078;-39
2023/10/21 20:44:12;;;;;;;5.95;1.67;;;19.80;93.60;;;;;;10466226;28;20052;-34
2023/10/21 20:49:14;;;;;;;5.15;1.70;;;20.00;93.90;;;;;;10463606;28;20045;-34
2023/10/21 20:54:16;;;;;;;3.15;1.75;;;20.10;92.90;;;;;;10471816;28;20048;-34
2023/10/21 20:59:19;;;;;;;7.35;2.05;;;20.20;93.20;;;;;;10465033;28;20634;-29
2023/10/21 21:04:21;;;;;;;7.53;1.95;;;20.60;92.40;;;;;;10461589;28;20182;-36
2023/10/21 21:09:23;;;;;;;4.32;2.10;;;20.10;93.90;;;;;;10470239;28;20098;-35
2023/10/21 21:14:26;;;;;;;3.65;1.70;;;20.20;93.10;;;;;;10469561;28;20044;-31
2023/10/21 21:19:28;;;;;;;6.15;1.88;;;20.40;92.90;;;;;;10470464;28;20479;-31
2023/10/21 21:24:30;;;;;;;6.47;1.58;;;20.20;93.40;;;;;;10462724;28;20577;-34
2023/10/21 21:29:34;;;;;;;4.68;1.70;;;20.10;93.10;;;;;;10466355;28;20132;-34
2023/10/21 21:34:36;;;;;;;4.63;1.80;;;20.30;93.20;;;;;;10458787;28;20485;-39
2023/10/21 21:39:38;;;;;;;5.07;1.67;;;20.30;93.00;;;;;;10465084;28;20079;-33
2023/10/21 21:44:41;;;;;;;6.05;1.90;;;20.20;92.80;;;;;;10450789;28;20052;-31
2023/10/21 21:49:43;;;;;;;3.63;1.83;;;19.80;94.80;;;;;;10464945;28;20109;-32
2023/10/21 21:54:45;;;;;;;3.58;1.50;;;20.40;92.80;;;;;;10468235;28;20049;-33
2023/10/21 21:59:48;;;;;;;6.80;1.90;;;20.40;92.60;;;;;;10462549;28;20552;-33
2023/10/21 22:04:52;;;;;;;5.78;1.80;;;20.00;93.70;;;;;;10470936;28;20041;-35
2023/10/21 22:09:54;;;;;;;2.72;1.30;;;20.20;93.10;;;;;;10471256;28;20394;-41
2023/10/21 22:14:57;;;;;;;;;;;20.20;93.10;;;;;;10462735;28;20051;-40
2023/10/21 22:19:59;;;;;;;4.05;1.80;;;20.40;92.50;;;;;;10475241;28;19916;-35
2023/10/21 22:25:05;;;;;;;4.30;2.22;;;20.20;93.10;;;;;;10466878;28;20072;-40
2023/10/21 22:30:11;;;;;;;4.80;1.30;;;20.00;93.70;;;;;;10466589;28;20040;-37
2023/10/21 22:35:12;;;;;;;2.38;1.30;;;19.80;92.80;;;;;;10472087;28;20055;-37
2023/10/21 22:40:17;;;;;;;2.88;1.27;;;20.00;93.60;;;;;;10474509;28;20055;-37
2023/10/21 22:45:20;;;;;;;3.47;1.50;;;20.10;93.20;;;;;;10461613;28;20108;-34
2023/10/21 22:50:23;;;;;;;2.75;1.20;;;20.30;93.10;;;;;;10469160;28;20051;-33
2023/10/21 22:55:24;;;;;;;2.83;1.50;;;20.30;93.10;;;;;;10470909;28;20056;-34
2023/10/21 23:00:28;;;;;;;3.22;1.40;;;20.10;92.80;;;;;;10468385;28;20147;-38
2023/10/21 23:05:32;;;;;;;3.92;1.52;;;19.70;93.40;;;;;;10467046;28;20374;-33
2023/10/21 23:10:34;;;;;;;4.22;1.33;;;19.30;94.80;;;;;;10454732;28;20474;-37
2023/10/21 23:15:43;;;;;;;2.17;1.13;;;19.30;97.10;;;;;;10460342;28;20052;-43
2023/10/21 23:20:45;;;;;;;3.30;1.70;;;19.10;97.00;;;;;;10457409;28;20465;-32
2023/10/21 23:25:47;;;;;;;2.28;1.23;;;18.10;99.90;;;;;;10466128;28;20201;-31
2023/10/21 23:30:50;;;;;;;4.03;1.58;;;18.20;99.90;;;;;;10474397;28;20078;-28
2023/10/21 23:35:53;;;;;;;1.80;1.15;;;18.00;99.90;;;;;;10476669;28;20049;-35
2023/10/21 23:40:55;;;;;;;2.08;1.08;;;18.00;99.90;;;;;;10478735;28;20059;-35
2023/10/21 23:46:03;;;;;;;2.83;1.30;;;16.90;99.90;;;;;;10474074;28;20412;-37
2023/10/21 23:51:05;;;;;;;5.13;1.20;;;17.70;99.90;;;;;;10470102;28;20060;-32
2023/10/21 23:56:07;;;;;;;3.67;1.40;;;17.40;99.90;;;;;;10474859;28;20053;-38
